createdAt,value
2018-07-27T00:01:33.330Z,6.93
2018-07-27T00:04:02.233Z,8.00
2018-07-27T00:06:30.448Z,7.60
2018-07-27T00:08:58.695Z,7.70
2018-07-27T00:11:27.246Z,7.00
2018-07-27T00:13:55.486Z,8.03
2018-07-27T00:16:23.732Z,7.00
2018-07-27T00:18:52.272Z,7.10
2018-07-27T00:21:20.834Z,8.10
2018-07-27T00:23:49.062Z,7.17
2018-07-27T00:26:17.313Z,7.70
2018-07-27T00:28:45.526Z,7.23
2018-07-27T00:31:14.097Z,7.00
2018-07-27T00:33:42.657Z,6.83
2018-07-27T00:36:10.897Z,7.40
2018-07-27T00:38:39.437Z,7.00
2018-07-27T00:41:07.680Z,7.43
2018-07-27T00:43:35.890Z,7.03
2018-07-27T00:46:04.473Z,7.23
2018-07-27T00:48:32.730Z,7.30
2018-07-27T00:51:01.311Z,7.43
2018-07-27T00:53:29.870Z,7.80
2018-07-27T00:55:58.197Z,7.63
2018-07-27T00:58:26.409Z,6.97
2018-07-27T01:00:54.645Z,6.77
2018-07-27T01:03:22.863Z,7.10
2018-07-27T01:05:51.798Z,7.27
2018-07-27T01:08:20.044Z,7.27
2018-07-27T01:10:48.298Z,7.53
2018-07-27T01:13:16.854Z,7.50
2018-07-27T01:15:45.409Z,7.17
2018-07-27T01:18:13.997Z,7.20
2018-07-27T01:20:42.750Z,7.23
2018-07-27T01:23:10.983Z,7.47
2018-07-27T01:25:39.511Z,7.00
2018-07-27T01:28:08.095Z,7.37
2018-07-27T01:30:36.712Z,7.87
2018-07-27T01:33:05.622Z,7.87
2018-07-27T01:35:33.849Z,7.43
2018-07-27T01:38:02.336Z,7.70
2018-07-27T01:40:31.148Z,8.30
2018-07-27T01:42:59.365Z,7.70
2018-07-27T01:45:27.630Z,8.50
2018-07-27T01:47:56.831Z,8.00
2018-07-27T01:50:25.049Z,7.80
2018-07-27T01:52:53.264Z,8.53
2018-07-27T01:55:21.843Z,7.27
2018-07-27T01:57:50.408Z,7.93
2018-07-27T02:00:18.621Z,9.10
2018-07-27T02:02:46.873Z,8.47
2018-07-27T02:05:15.480Z,8.67
2018-07-27T02:07:43.740Z,8.90
2018-07-27T02:10:12.304Z,8.07
2018-07-27T02:12:40.533Z,7.63
2018-07-27T02:15:09.947Z,7.77
2018-07-27T02:17:39.264Z,8.70
2018-07-27T02:20:07.492Z,7.13
2018-07-27T02:22:36.533Z,8.10
2018-07-27T02:25:04.913Z,7.90
2018-07-27T02:27:33.493Z,8.50
2018-07-27T02:30:02.050Z,8.03
2018-07-27T02:32:30.624Z,8.50
2018-07-27T02:34:58.856Z,8.33
2018-07-27T02:37:27.422Z,8.70
2018-07-27T02:39:55.696Z,8.00
2018-07-27T02:42:23.966Z,7.80
2018-07-27T02:44:52.172Z,8.00
2018-07-27T02:47:20.745Z,8.53
2018-07-27T02:49:49.342Z,8.30
2018-07-27T02:52:18.525Z,8.20
2018-07-27T02:54:47.132Z,7.03
2018-07-27T02:57:15.661Z,7.70
2018-07-27T02:59:44.371Z,8.13
2018-07-27T03:02:12.583Z,7.50
2018-07-27T03:04:42.962Z,7.60
2018-07-27T03:07:11.515Z,8.17
2018-07-27T03:09:45.699Z,7.80
2018-07-27T03:12:14.695Z,8.35
2018-07-27T03:14:43.207Z,8.60
2018-07-27T03:17:11.711Z,9.33
2018-07-27T03:19:40.250Z,7.87
2018-07-27T03:22:08.831Z,8.10
2018-07-27T03:24:37.338Z,8.13
2018-07-27T03:27:05.838Z,8.78
2018-07-27T03:29:34.353Z,8.20
2018-07-27T03:32:03.177Z,7.97
2018-07-27T03:34:31.683Z,9.23
2018-07-27T03:37:00.201Z,8.63
2018-07-27T03:39:28.473Z,8.33
2018-07-27T03:41:56.965Z,9.45
2018-07-27T03:44:25.794Z,8.65
2018-07-27T03:46:54.389Z,9.20
2018-07-27T03:49:22.873Z,8.58
2018-07-27T03:51:51.708Z,8.45
2018-07-27T03:54:20.561Z,9.30
2018-07-27T03:56:49.036Z,7.42
2018-07-27T03:59:17.592Z,7.80
2018-07-27T04:01:45.796Z,9.10
2018-07-27T04:04:14.084Z,9.15
2018-07-27T04:06:42.633Z,8.40
2018-07-27T04:09:11.139Z,9.68
2018-07-27T04:11:40.286Z,8.48
2018-07-27T04:14:09.180Z,8.90
2018-07-27T04:16:38.351Z,8.55
2018-07-27T04:19:07.533Z,11.68
2018-07-27T04:21:36.413Z,9.73
2018-07-27T04:24:05.245Z,9.48
2018-07-27T04:26:33.725Z,8.48
2018-07-27T04:29:02.248Z,9.08
2018-07-27T04:31:31.097Z,9.60
2018-07-27T04:33:59.620Z,9.68
2018-07-27T04:36:28.494Z,10.25
2018-07-27T04:38:57.021Z,9.38
2018-07-27T04:41:25.872Z,8.48
2018-07-27T04:43:54.790Z,9.03
2018-07-27T04:46:23.638Z,8.95
2018-07-27T04:48:52.472Z,9.50
2018-07-27T04:51:21.310Z,9.30
2018-07-27T04:53:49.914Z,8.80
2018-07-27T04:56:18.764Z,10.25
2018-07-27T04:58:47.610Z,10.20
2018-07-27T05:01:16.806Z,10.30
2018-07-27T05:03:45.968Z,9.53
2018-07-27T05:06:14.816Z,9.63
2018-07-27T05:08:49.088Z,11.18
2018-07-27T05:11:17.945Z,9.48
2018-07-27T05:13:46.465Z,9.10
2018-07-27T05:16:15.674Z,9.53
2018-07-27T05:18:44.802Z,9.45
2018-07-27T05:21:13.678Z,10.00
2018-07-27T05:23:42.204Z,9.43
2018-07-27T05:26:10.520Z,10.17
2018-07-27T05:28:39.694Z,8.85
2018-07-27T05:31:08.541Z,10.23
2018-07-27T05:33:36.785Z,9.60
2018-07-27T05:36:05.841Z,9.15
2018-07-27T05:38:35.021Z,9.45
2018-07-27T05:41:03.260Z,9.40
2018-07-27T05:43:32.207Z,10.70
2018-07-27T05:46:01.385Z,9.38
2018-07-27T05:48:29.644Z,10.13
2018-07-27T05:50:58.224Z,9.30
2018-07-27T05:53:26.810Z,9.43
2018-07-27T05:55:55.309Z,9.90
2018-07-27T05:58:23.869Z,10.32
2018-07-27T06:00:53.159Z,10.28
2018-07-27T06:03:21.982Z,10.18
2018-07-27T06:05:50.837Z,8.45
2018-07-27T06:08:19.419Z,10.13
2018-07-27T06:10:48.641Z,9.78
2018-07-27T06:13:17.624Z,9.30
2018-07-27T06:15:46.197Z,10.53
2018-07-27T06:18:14.853Z,9.93
2018-07-27T06:20:43.477Z,9.60
2018-07-27T06:23:11.981Z,10.53
2018-07-27T06:25:41.177Z,9.00
2018-07-27T06:28:10.203Z,9.60
2018-07-27T06:30:38.849Z,8.75
2018-07-27T06:33:07.694Z,9.85
2018-07-27T06:35:36.911Z,9.80
2018-07-27T06:38:05.415Z,9.83
2018-07-27T06:40:34.246Z,9.83
2018-07-27T06:43:03.021Z,11.10
2018-07-27T06:45:31.267Z,10.47
2018-07-27T06:47:59.816Z,10.40
2018-07-27T06:50:28.332Z,9.80
2018-07-27T06:52:56.822Z,9.88
2018-07-27T06:55:25.713Z,10.87
2018-07-27T06:57:54.418Z,12.77
2018-07-27T07:00:23.262Z,11.48
2018-07-27T07:02:51.856Z,11.18
2018-07-27T07:05:20.107Z,9.00
2018-07-27T07:07:48.322Z,9.57
2018-07-27T07:10:16.546Z,8.90
2018-07-27T07:12:45.111Z,9.70
2018-07-27T07:15:13.362Z,10.73
2018-07-27T07:17:41.941Z,9.17
2018-07-27T07:20:10.459Z,9.60
2018-07-27T07:22:38.934Z,9.63
2018-07-27T07:25:07.255Z,8.80
2018-07-27T07:27:35.675Z,9.60
2018-07-27T07:30:03.977Z,10.10
2018-07-27T07:32:32.206Z,9.20
2018-07-27T07:35:01.202Z,9.53
2018-07-27T07:37:29.425Z,9.90
2018-07-27T07:39:57.983Z,9.80
2018-07-27T07:42:26.213Z,7.83
2018-07-27T07:44:54.485Z,8.50
2018-07-27T07:47:23.330Z,9.13
2018-07-27T07:51:16.037Z,9.57
2018-07-27T07:53:44.635Z,9.07
2018-07-27T07:56:13.188Z,10.03
2018-07-27T07:58:41.767Z,9.23
2018-07-27T08:01:10.482Z,9.83
2018-07-27T08:03:39.054Z,9.63
2018-07-27T08:06:07.621Z,9.03
2018-07-27T08:08:36.176Z,10.17
2018-07-27T08:11:04.778Z,8.60
2018-07-27T08:13:33.517Z,9.03
2018-07-27T08:16:02.076Z,8.80
2018-07-27T08:18:30.641Z,9.20
2018-07-27T08:20:59.346Z,8.40
2018-07-27T08:23:27.968Z,8.47
2018-07-27T08:27:02.246Z,7.90
2018-07-27T08:29:34.630Z,8.47
2018-07-27T08:32:03.264Z,8.10
2018-07-27T08:34:31.823Z,7.77
2018-07-27T08:37:00.380Z,8.00
2018-07-27T08:39:29.844Z,7.73
2018-07-27T08:41:58.397Z,6.73
2018-07-27T08:44:29.304Z,7.30
2018-07-27T08:46:57.539Z,7.37
2018-07-27T08:49:26.089Z,6.60
2018-07-27T08:51:54.309Z,7.00
2018-07-27T08:54:22.534Z,7.50
2018-07-27T08:56:51.498Z,6.73
2018-07-27T08:59:19.721Z,6.90
2018-07-27T09:01:48.608Z,7.37
2018-07-27T09:04:17.283Z,6.53
2018-07-27T09:06:45.508Z,5.90
2018-07-27T09:09:14.901Z,4.87
2018-07-27T09:11:43.115Z,3.90
2018-07-27T09:14:11.645Z,5.37
2018-07-27T09:16:39.859Z,4.10
2018-07-27T09:19:08.421Z,5.07
2018-07-27T09:21:36.958Z,4.63
2018-07-27T09:24:05.230Z,4.90
2018-07-27T09:26:33.828Z,4.60
2018-07-27T09:29:02.705Z,4.23
2018-07-27T09:31:31.336Z,4.27
2018-07-27T09:34:00.174Z,5.27
2018-07-27T09:36:29.067Z,4.67
2018-07-27T09:38:57.950Z,5.27
2018-07-27T09:41:26.766Z,4.30
2018-07-27T09:43:55.613Z,5.57
2018-07-27T09:46:24.197Z,4.53
2018-07-27T09:48:54.205Z,5.20
2018-07-27T09:51:24.580Z,5.23
2018-07-27T09:53:54.475Z,5.13
2018-07-27T09:56:23.200Z,5.33
2018-07-27T09:58:51.802Z,5.30
2018-07-27T10:01:25.514Z,4.73
2018-07-27T10:03:54.835Z,4.90
2018-07-27T10:06:23.888Z,5.53
2018-07-27T10:08:52.649Z,5.57
2018-07-27T10:11:21.717Z,6.10
2018-07-27T10:13:50.432Z,5.60
2018-07-27T10:16:19.153Z,5.10
2018-07-27T10:18:48.033Z,5.20
2018-07-27T10:21:16.977Z,4.93
2018-07-27T10:23:46.546Z,3.73
2018-07-27T10:26:14.769Z,4.93
2018-07-27T10:28:42.981Z,4.57
2018-07-27T10:31:11.564Z,4.23
2018-07-27T10:33:40.766Z,5.77
2018-07-27T10:36:09.562Z,4.90
2018-07-27T10:38:38.184Z,5.00
2018-07-27T10:41:07.014Z,5.23
2018-07-27T10:43:35.358Z,4.57
2018-07-27T10:46:04.261Z,4.93
2018-07-27T10:48:32.476Z,6.07
2018-07-27T10:51:01.364Z,5.90
2018-07-27T10:53:29.559Z,4.40
2018-07-27T10:55:58.112Z,5.50
2018-07-27T10:58:26.981Z,4.80
2018-07-27T11:00:55.210Z,5.20
2018-07-27T11:03:24.647Z,5.27
2018-07-27T11:05:53.149Z,4.80
2018-07-27T11:08:22.217Z,5.00
2018-07-27T11:10:50.432Z,4.93
2018-07-27T11:13:18.647Z,6.23
2018-07-27T11:15:46.882Z,5.37
2018-07-27T11:18:15.763Z,5.50
2018-07-27T11:20:44.224Z,5.37
2018-07-27T11:23:13.080Z,6.50
2018-07-27T11:25:42.018Z,5.23
2018-07-27T11:28:11.069Z,5.10
2018-07-27T11:30:39.316Z,5.93
2018-07-27T11:33:07.857Z,5.10
2018-07-27T11:35:36.097Z,5.83
2018-07-27T11:38:04.331Z,5.47
2018-07-27T11:40:32.912Z,5.10
2018-07-27T11:43:01.792Z,5.00
2018-07-27T11:45:30.344Z,4.90
2018-07-27T11:47:59.470Z,5.77
2018-07-27T11:50:28.024Z,4.80
2018-07-27T11:52:56.589Z,5.17
2018-07-27T11:55:24.577Z,4.13
2018-07-27T11:57:53.700Z,4.43
2018-07-27T12:00:22.234Z,4.90
2018-07-27T12:02:50.978Z,4.70
2018-07-27T12:05:19.517Z,3.87
2018-07-27T12:07:48.085Z,4.33
2018-07-27T12:10:16.305Z,4.60
2018-07-27T12:12:44.858Z,3.70
2018-07-27T12:15:13.292Z,4.20
2018-07-27T12:17:41.505Z,4.70
2018-07-27T12:20:10.380Z,4.43
2018-07-27T12:22:39.540Z,4.50
2018-07-27T12:25:08.080Z,4.77
2018-07-27T12:27:36.570Z,4.60
2018-07-27T12:38:18.937Z,4.90
2018-07-27T12:40:47.152Z,4.40
2018-07-27T12:43:15.711Z,4.87
2018-07-27T12:45:43.944Z,4.40
2018-07-27T12:48:12.171Z,4.67
2018-07-27T12:50:40.712Z,4.43
2018-07-27T12:53:08.975Z,3.80
2018-07-27T12:55:38.230Z,4.47
2018-07-27T12:58:06.760Z,4.90
2018-07-27T13:00:34.965Z,3.83
2018-07-27T13:03:03.840Z,4.27
2018-07-27T13:05:32.502Z,4.03
2018-07-27T13:08:00.827Z,4.20
2018-07-27T13:10:29.044Z,4.87
2018-07-27T13:12:57.290Z,4.20
2018-07-27T13:15:25.553Z,4.67
2018-07-27T13:17:54.105Z,4.80
2018-07-27T13:20:22.377Z,4.30
2018-07-27T13:22:50.922Z,4.57
2018-07-27T13:25:19.122Z,4.13
2018-07-27T13:27:47.672Z,4.50
2018-07-27T13:30:16.229Z,4.50
2018-07-27T13:32:44.783Z,5.40
2018-07-27T13:40:11.038Z,4.50
2018-07-27T13:42:40.185Z,5.07
2018-07-27T13:45:08.167Z,4.90
2018-07-27T13:47:36.755Z,4.10
2018-07-27T13:50:05.003Z,5.40
2018-07-27T13:52:33.569Z,5.13
2018-07-27T13:55:03.718Z,4.87
2018-07-27T13:57:32.315Z,5.07
2018-07-27T14:00:00.661Z,4.40
2018-07-27T14:02:28.877Z,5.50
2018-07-27T14:04:58.207Z,5.20
2018-07-27T14:07:26.765Z,4.53
2018-07-27T14:09:55.709Z,4.90
2018-07-27T14:12:24.298Z,5.10
2018-07-27T14:14:52.521Z,5.10
2018-07-27T14:17:20.750Z,5.50
2018-07-27T14:19:50.019Z,5.30
2018-07-27T14:22:20.902Z,5.60
2018-07-27T14:24:52.710Z,5.90
2018-07-27T14:27:21.578Z,6.13
2018-07-27T14:29:51.893Z,5.43
2018-07-27T14:32:20.701Z,6.00
2018-07-27T14:34:49.824Z,4.77
2018-07-27T14:37:18.374Z,4.80
2018-07-27T14:39:47.258Z,4.17
2018-07-27T14:42:15.481Z,5.30
2018-07-27T14:44:44.597Z,6.00
2018-07-27T14:47:13.612Z,5.60
2018-07-27T14:49:41.824Z,5.23
2018-07-27T14:52:10.654Z,5.50
2018-07-27T14:54:39.373Z,5.17
2018-07-27T14:57:08.764Z,5.30
2018-07-27T14:59:37.042Z,5.93
2018-07-27T15:02:05.383Z,5.20
2018-07-27T15:04:33.628Z,5.43
2018-07-27T15:07:03.872Z,5.50
2018-07-27T15:09:32.121Z,5.30
2018-07-27T15:12:00.741Z,5.13
2018-07-27T15:14:29.370Z,6.27
2018-07-27T15:16:57.940Z,4.80
2018-07-27T15:19:29.866Z,5.10
2018-07-27T15:21:58.130Z,5.27
2018-07-27T15:24:28.581Z,6.10
2018-07-27T15:26:57.218Z,5.73
2018-07-27T15:29:25.790Z,5.50
2018-07-27T15:31:54.860Z,5.60
2018-07-27T15:34:23.172Z,6.60
2018-07-27T15:36:53.139Z,6.40
2018-07-27T15:39:21.750Z,5.37
2018-07-27T15:41:49.970Z,5.40
2018-07-27T15:44:18.193Z,6.13
2018-07-27T15:46:47.157Z,5.63
2018-07-27T15:49:16.243Z,6.33
2018-07-27T15:51:45.177Z,6.10
2018-07-27T15:54:13.448Z,6.70
2018-07-27T15:56:42.041Z,6.37
2018-07-27T15:59:10.268Z,5.97
2018-07-27T16:01:38.853Z,6.00
2018-07-27T16:04:07.093Z,6.30
2018-07-27T16:06:35.644Z,6.30
2018-07-27T16:09:06.647Z,5.47
2018-07-27T16:11:35.242Z,6.20
2018-07-27T16:14:04.273Z,6.03
2018-07-27T16:16:32.661Z,6.20
2018-07-27T16:19:00.892Z,5.70
2018-07-27T16:21:29.785Z,7.33
2018-07-27T16:23:58.021Z,6.77
2018-07-27T16:26:26.297Z,6.93
2018-07-27T16:28:54.851Z,7.30
2018-07-27T16:31:23.134Z,6.43
2018-07-27T16:33:52.076Z,6.60
2018-07-27T16:36:20.988Z,6.63
2018-07-27T16:38:49.235Z,6.90
2018-07-27T16:41:17.474Z,6.20
2018-07-27T16:43:46.608Z,6.87
2018-07-27T16:46:15.505Z,6.40
2018-07-27T16:48:43.727Z,6.57
2018-07-27T16:51:13.011Z,6.90
2018-07-27T16:53:42.596Z,7.70
2018-07-27T16:56:11.173Z,6.43
2018-07-27T16:58:39.446Z,7.13
2018-07-27T17:01:08.370Z,6.43
2018-07-27T17:03:36.600Z,7.43
2018-07-27T17:06:05.216Z,7.13
2018-07-27T17:08:33.600Z,7.33
2018-07-27T17:11:01.826Z,6.70
2018-07-27T17:13:30.431Z,6.40
2018-07-27T17:15:59.215Z,6.40
2018-07-27T17:18:28.246Z,6.80
2018-07-27T17:20:56.356Z,6.60
2018-07-27T17:23:24.839Z,6.70
2018-07-27T17:25:53.119Z,6.50
2018-07-27T17:28:21.576Z,7.00
2018-07-27T17:30:50.984Z,7.20
2018-07-27T17:33:19.258Z,6.90
2018-07-27T17:35:47.705Z,6.60
2018-07-27T17:38:16.295Z,6.50
2018-07-27T17:40:44.905Z,7.43
2018-07-27T17:43:13.822Z,5.57
2018-07-27T17:45:42.397Z,6.57
2018-07-27T17:48:10.941Z,6.67
2018-07-27T17:50:40.188Z,5.80
2018-07-27T17:53:08.436Z,6.30
2018-07-27T17:55:36.657Z,7.23
2018-07-27T17:58:05.023Z,8.10
2018-07-27T18:00:34.944Z,6.90
2018-07-27T18:03:03.862Z,7.50
2018-07-27T18:05:32.757Z,7.60
2018-07-27T18:08:01.384Z,8.30
2018-07-27T18:10:29.781Z,8.53
2018-07-27T18:12:58.035Z,7.67
2018-07-27T18:15:26.609Z,8.87
2018-07-27T18:17:54.846Z,8.00
2018-07-27T18:20:23.096Z,9.20
2018-07-27T18:22:51.453Z,8.13
2018-07-27T18:25:19.688Z,7.87
2018-07-27T18:27:48.838Z,9.07
2018-07-27T18:30:17.465Z,8.43
2018-07-27T18:32:45.945Z,8.20
2018-07-27T18:35:14.234Z,7.30
2018-07-27T18:37:42.480Z,8.07
2018-07-27T18:40:11.036Z,7.50
2018-07-27T18:42:39.405Z,7.23
2018-07-27T18:45:08.254Z,7.80
2018-07-27T18:47:36.928Z,9.80
2018-07-27T18:50:05.784Z,7.50
2018-07-27T18:52:34.021Z,7.97
2018-07-27T18:55:02.659Z,7.50
2018-07-27T18:57:31.352Z,8.47
2018-07-27T18:59:59.584Z,8.40
2018-07-27T19:02:28.169Z,7.70
2018-07-27T19:04:56.413Z,8.37
2018-07-27T19:07:25.283Z,8.40
2018-07-27T19:09:53.528Z,8.60
2018-07-27T19:12:21.745Z,9.03
2018-07-27T19:14:49.949Z,8.70
2018-07-27T19:17:20.017Z,8.97
2018-07-27T19:19:48.577Z,8.80
2018-07-27T19:22:17.155Z,8.37
2018-07-27T19:24:45.694Z,8.77
2018-07-27T19:27:13.949Z,8.47
2018-07-27T19:29:42.224Z,8.57
2018-07-27T19:32:10.442Z,8.43
2018-07-27T19:34:38.673Z,8.87
2018-07-27T19:37:07.873Z,7.97
2018-07-27T19:39:36.089Z,8.33
2018-07-27T19:42:04.334Z,8.27
2018-07-27T19:44:34.033Z,8.60
2018-07-27T19:47:02.585Z,8.10
2018-07-27T19:49:30.822Z,8.03
2018-07-27T19:51:59.067Z,7.30
2018-07-27T19:54:27.404Z,6.50
2018-07-27T19:56:56.141Z,7.27
2018-07-27T19:59:24.768Z,7.20
2018-07-27T20:01:53.009Z,7.67
2018-07-27T20:04:21.287Z,7.27
2018-07-27T20:06:49.874Z,7.07
2018-07-27T20:09:18.473Z,7.87
2018-07-27T20:11:47.055Z,7.43
2018-07-27T20:14:15.292Z,6.73
2018-07-27T20:16:43.858Z,6.13
2018-07-27T20:19:12.113Z,7.50
2018-07-27T20:21:40.472Z,8.17
2018-07-27T20:24:09.398Z,7.23
2018-07-27T20:26:38.021Z,7.37
2018-07-27T20:29:06.584Z,6.90
2018-07-27T20:31:35.213Z,8.27
2018-07-27T20:34:04.097Z,6.20
2018-07-27T20:36:32.677Z,6.80
2018-07-27T20:39:01.546Z,7.60
2018-07-27T20:41:30.114Z,7.80
2018-07-27T20:43:58.374Z,7.43
2018-07-27T20:46:26.773Z,7.03
2018-07-27T20:48:54.994Z,7.20
2018-07-27T20:51:23.231Z,7.27
2018-07-27T20:53:52.201Z,7.30
2018-07-27T20:56:20.460Z,7.13
2018-07-27T20:58:49.001Z,7.30
2018-07-27T21:01:17.550Z,6.70
2018-07-27T21:03:46.141Z,6.53
2018-07-27T21:06:14.361Z,6.97
2018-07-27T21:08:42.969Z,6.87
2018-07-27T21:12:35.799Z,7.80
2018-07-27T21:15:04.384Z,6.47
2018-07-27T21:17:32.947Z,6.80
2018-07-27T21:20:01.181Z,7.20
2018-07-27T21:22:29.754Z,5.93
2018-07-27T21:25:00.299Z,6.80
2018-07-27T21:27:29.278Z,6.20
2018-07-27T21:29:58.273Z,6.23
2018-07-27T21:32:28.557Z,6.03
2018-07-27T21:34:56.822Z,6.37
2018-07-27T21:37:25.289Z,7.23
2018-07-27T21:39:54.541Z,6.03
2018-07-27T21:42:23.494Z,7.03
2018-07-27T21:44:51.842Z,5.83
2018-07-27T21:47:21.262Z,7.30
2018-07-27T21:49:50.150Z,6.30
2018-07-27T21:52:19.093Z,6.00
2018-07-27T21:54:48.366Z,6.83
2018-07-27T21:57:17.416Z,6.30
2018-07-27T21:59:46.058Z,6.10
2018-07-27T22:02:14.480Z,5.97
2018-07-27T22:04:44.505Z,6.90
2018-07-27T22:07:12.799Z,6.30
2018-07-27T22:09:41.113Z,7.43
2018-07-27T22:12:09.126Z,6.83
2018-07-27T22:14:37.505Z,6.50
2018-07-27T22:17:06.305Z,5.93
2018-07-27T22:19:34.580Z,5.97
2018-07-27T22:22:03.501Z,6.70
2018-07-27T22:24:31.792Z,7.00
2018-07-27T22:27:00.399Z,6.40
2018-07-27T22:29:29.281Z,6.00
2018-07-27T22:31:57.523Z,8.30
2018-07-27T22:34:26.098Z,7.40
2018-07-27T22:36:54.365Z,7.13
2018-07-27T22:39:22.996Z,6.40
2018-07-27T22:41:51.553Z,7.00
2018-07-27T22:44:19.800Z,6.87
2018-07-27T22:46:48.382Z,7.67
2018-07-27T22:49:16.606Z,7.63
2018-07-27T22:51:44.829Z,8.30
2018-07-27T22:54:13.037Z,7.83
2018-07-27T22:56:41.273Z,6.27
2018-07-27T22:59:09.525Z,7.63
2018-07-27T23:01:38.101Z,6.83
2018-07-27T23:04:07.325Z,6.63
2018-07-27T23:06:35.572Z,7.00
2018-07-27T23:09:06.160Z,6.40
2018-07-27T23:11:34.384Z,6.33
2018-07-27T23:14:03.277Z,7.10
2018-07-27T23:16:32.727Z,6.67
2018-07-27T23:19:01.283Z,6.67
2018-07-27T23:21:30.352Z,7.23
2018-07-27T23:23:58.965Z,6.60
2018-07-27T23:26:27.217Z,7.03
2018-07-27T23:28:55.424Z,6.77
2018-07-27T23:31:23.989Z,7.80
2018-07-27T23:33:52.553Z,7.10
2018-07-27T23:36:20.755Z,7.67
2018-07-27T23:38:49.607Z,7.93
2018-07-27T23:41:22.893Z,7.73
2018-07-27T23:43:51.477Z,8.30
2018-07-27T23:46:21.604Z,8.10
2018-07-27T23:48:49.867Z,7.37
2018-07-27T23:51:18.421Z,8.27
2018-07-27T23:53:47.316Z,6.87
2018-07-27T23:56:15.553Z,7.77
2018-07-27T23:58:44.088Z,8.40
